createdAt,value
2023-04-10T00:03:02.271Z,100.00
2023-04-10T00:06:07.694Z,100.00
2023-04-10T00:09:12.927Z,100.00
2023-04-10T00:12:17.208Z,100.00
2023-04-10T00:15:21.587Z,100.00
2023-04-10T00:18:25.893Z,100.00
2023-04-10T00:21:31.349Z,100.00
2023-04-10T00:24:35.746Z,100.00
2023-04-10T00:27:40.348Z,100.00
2023-04-10T00:30:44.613Z,100.00
2023-04-10T00:33:48.835Z,100.00
2023-04-10T00:36:53.446Z,100.00
2023-04-10T00:39:57.727Z,100.00
2023-04-10T00:43:02.128Z,100.00
2023-04-10T00:46:07.250Z,100.00
2023-04-10T00:49:11.920Z,100.00
2023-04-10T00:52:16.553Z,100.00
2023-04-10T00:55:21.189Z,100.00
2023-04-10T00:58:26.883Z,100.00
2023-04-10T01:01:31.518Z,100.00
2023-04-10T01:04:36.364Z,100.00
2023-04-10T01:08:05.163Z,100.00
2023-04-10T01:11:32.739Z,100.00
2023-04-10T01:15:12.913Z,100.00
2023-04-10T01:18:27.027Z,100.00
2023-04-10T01:21:36.169Z,100.00
2023-04-10T01:25:05.005Z,100.00
2023-04-10T01:28:47.099Z,100.00
2023-04-10T01:32:01.792Z,100.00
2023-04-10T01:35:08.889Z,100.00
2023-04-10T01:38:18.136Z,100.00
2023-04-10T01:41:24.047Z,100.00
2023-04-10T01:44:32.121Z,100.00
2023-04-10T01:47:36.952Z,100.00
2023-04-10T01:50:41.898Z,100.00
2023-04-10T01:53:47.265Z,100.00
2023-04-10T01:56:51.894Z,100.00
2023-04-10T01:59:56.699Z,100.00
2023-04-10T02:03:01.198Z,100.00
2023-04-10T02:06:50.507Z,100.00
2023-04-10T02:10:19.538Z,100.00
2023-04-10T02:13:27.775Z,100.00
2023-04-10T02:16:34.156Z,100.00
2023-04-10T02:19:40.292Z,100.00
2023-04-10T02:22:44.964Z,100.00
2023-04-10T02:25:49.503Z,100.00
2023-04-10T02:28:53.860Z,100.00
2023-04-10T02:31:57.949Z,100.00
2023-04-10T02:35:03.171Z,100.00
2023-04-10T02:38:08.058Z,100.00
2023-04-10T02:41:12.174Z,100.00
2023-04-10T02:44:16.432Z,100.00
2023-04-10T02:47:20.832Z,100.00
2023-04-10T02:50:25.593Z,100.00
2023-04-10T02:53:30.163Z,100.00
2023-04-10T02:56:35.140Z,100.00
2023-04-10T02:59:39.447Z,100.00
2023-04-10T03:02:44.030Z,100.00
2023-04-10T03:05:49.567Z,100.00
2023-04-10T03:08:54.469Z,100.00
2023-04-10T03:11:58.997Z,100.00
2023-04-10T03:15:03.488Z,100.00
2023-04-10T03:18:09.200Z,100.00
2023-04-10T03:21:13.939Z,100.00
2023-04-10T03:24:18.121Z,100.00
2023-04-10T03:27:22.697Z,100.00
2023-04-10T03:30:27.110Z,100.00
2023-04-10T03:33:31.233Z,100.00
2023-04-10T03:36:35.968Z,100.00
2023-04-10T03:39:40.672Z,100.00
2023-04-10T03:42:44.865Z,100.00
2023-04-10T03:45:49.193Z,100.00
2023-04-10T03:48:54.180Z,100.00
2023-04-10T03:51:58.584Z,100.00
2023-04-10T03:55:02.907Z,100.00
2023-04-10T03:58:07.514Z,100.00
2023-04-10T04:01:11.801Z,100.00
2023-04-10T04:04:16.032Z,100.00
2023-04-10T04:07:20.614Z,100.00
2023-04-10T04:10:25.135Z,100.00
2023-04-10T04:13:29.427Z,100.00
2023-04-10T04:16:33.839Z,100.00
2023-04-10T04:19:38.387Z,100.00
2023-04-10T04:22:42.918Z,100.00
2023-04-10T04:25:47.176Z,100.00
2023-04-10T04:28:51.604Z,100.00
2023-04-10T04:31:55.931Z,100.00
2023-04-10T04:35:00.403Z,100.00
2023-04-10T04:38:04.845Z,100.00
2023-04-10T04:41:09.461Z,100.00
2023-04-10T04:44:14.079Z,100.00
2023-04-10T04:47:18.459Z,100.00
2023-04-10T04:50:22.480Z,100.00
2023-04-10T04:53:26.916Z,100.00
2023-04-10T04:56:30.867Z,100.00
2023-04-10T04:59:35.453Z,100.00
2023-04-10T05:02:39.834Z,100.00
2023-04-10T05:05:44.350Z,100.00
2023-04-10T05:08:48.821Z,100.00
2023-04-10T05:11:54.443Z,100.00
2023-04-10T05:14:59.230Z,100.00
2023-04-10T05:18:03.834Z,100.00
2023-04-10T05:21:08.208Z,100.00
2023-04-10T05:24:12.143Z,100.00
2023-04-10T05:27:18.328Z,100.00
2023-04-10T05:30:22.667Z,100.00
2023-04-10T05:33:26.875Z,100.00
2023-04-10T05:36:32.185Z,100.00
2023-04-10T05:39:36.369Z,100.00
2023-04-10T05:42:40.707Z,100.00
2023-04-10T05:45:45.389Z,100.00
2023-04-10T05:48:49.775Z,100.00
2023-04-10T05:51:54.155Z,100.00
2023-04-10T05:54:58.265Z,100.00
2023-04-10T05:58:02.664Z,100.00
2023-04-10T06:01:07.705Z,100.00
2023-04-10T06:04:12.056Z,100.00
2023-04-10T06:07:16.939Z,100.00
2023-04-10T06:10:21.412Z,100.00
2023-04-10T06:13:27.365Z,100.00
2023-04-10T06:16:31.600Z,100.00
2023-04-10T06:19:36.561Z,100.00
2023-04-10T06:22:41.068Z,100.00
2023-04-10T06:25:45.516Z,100.00
2023-04-10T06:28:49.897Z,100.00
2023-04-10T06:31:54.564Z,100.00
2023-04-10T06:34:58.887Z,100.00
2023-04-10T06:38:03.623Z,100.00
2023-04-10T06:41:08.153Z,100.00
2023-04-10T06:44:12.391Z,100.00
2023-04-10T06:47:18.305Z,100.00
2023-04-10T06:50:22.710Z,100.00
2023-04-10T06:53:27.288Z,100.00
2023-04-10T06:56:32.135Z,100.00
2023-04-10T06:59:36.822Z,100.00
2023-04-10T07:02:41.036Z,100.00
2023-04-10T07:05:45.467Z,100.00
2023-04-10T07:08:49.885Z,100.00
2023-04-10T07:11:54.295Z,100.00
2023-04-10T07:14:58.900Z,100.00
2023-04-10T07:18:03.557Z,100.00
2023-04-10T07:21:14.696Z,100.00
2023-04-10T07:24:19.267Z,100.00
2023-04-10T07:27:24.831Z,100.00
2023-04-10T07:30:29.077Z,100.00
2023-04-10T07:33:33.688Z,100.00
2023-04-10T07:36:38.940Z,100.00
2023-04-10T07:39:43.352Z,100.00
2023-04-10T07:42:48.108Z,100.00
2023-04-10T07:45:52.895Z,100.00
2023-04-10T07:48:57.499Z,100.00
2023-04-10T07:52:01.783Z,100.00
2023-04-10T07:55:06.794Z,100.00
2023-04-10T07:58:11.372Z,100.00
2023-04-10T08:01:15.873Z,100.00
2023-04-10T08:04:20.099Z,100.00
2023-04-10T08:07:24.645Z,100.00
2023-04-10T08:10:29.128Z,100.00
2023-04-10T08:13:33.419Z,100.00
2023-04-10T08:16:38.531Z,100.00
2023-04-10T08:19:43.567Z,100.00
2023-04-10T08:22:48.222Z,100.00
2023-04-10T08:25:52.354Z,100.00
2023-04-10T08:28:58.747Z,100.00
2023-04-10T08:32:02.879Z,100.00
2023-04-10T08:35:07.789Z,100.00
2023-04-10T08:38:14.421Z,100.00
2023-04-10T08:41:20.035Z,100.00
2023-04-10T08:44:24.372Z,100.00
2023-04-10T08:47:31.176Z,100.00
2023-04-10T08:50:43.180Z,100.00
2023-04-10T08:53:51.476Z,100.00
2023-04-10T08:56:56.805Z,100.00
2023-04-10T09:00:09.665Z,100.00
2023-04-10T09:03:25.587Z,100.00
2023-04-10T09:06:31.485Z,100.00
2023-04-10T09:09:36.313Z,100.00
2023-04-10T09:12:48.677Z,100.00
2023-04-10T09:16:00.331Z,100.00
2023-04-10T09:19:07.263Z,100.00
2023-04-10T09:22:12.973Z,100.00
2023-04-10T09:25:41.667Z,100.00
2023-04-10T09:29:06.221Z,100.00
2023-04-10T09:32:12.309Z,100.00
2023-04-10T09:35:16.684Z,100.00
2023-04-10T09:38:21.984Z,100.00
2023-04-10T09:41:26.097Z,100.00
2023-04-10T09:44:32.858Z,100.00
2023-04-10T09:47:37.890Z,100.00
2023-04-10T09:50:42.698Z,100.00
2023-04-10T09:53:50.887Z,100.00
2023-04-10T09:56:56.574Z,100.00
2023-04-10T10:00:05.166Z,100.00
2023-04-10T10:03:15.935Z,100.00
2023-04-10T10:06:21.732Z,100.00
2023-04-10T10:09:29.315Z,100.00
2023-04-10T10:12:50.482Z,100.00
2023-04-10T10:16:13.606Z,100.00
2023-04-10T10:19:36.461Z,100.00
2023-04-10T10:22:41.368Z,100.00
2023-04-10T10:25:46.754Z,100.00
2023-04-10T10:28:56.177Z,100.00
2023-04-10T10:32:02.926Z,100.00
2023-04-10T10:35:08.497Z,100.00
2023-04-10T10:38:13.687Z,100.00
2023-04-10T10:41:56.994Z,100.00
2023-04-10T10:45:16.956Z,100.00
2023-04-10T10:48:21.608Z,100.00
2023-04-10T10:51:51.812Z,100.00
2023-04-10T10:54:59.452Z,100.00
2023-04-10T10:58:09.752Z,100.00
2023-04-10T11:01:15.575Z,94.84
2023-04-10T11:04:48.684Z,100.00
2023-04-10T11:08:10.786Z,93.28
2023-04-10T11:11:23.539Z,90.24
2023-04-10T11:14:31.059Z,91.97
2023-04-10T11:17:49.708Z,86.06
2023-04-10T11:21:28.576Z,88.88
2023-04-10T11:24:57.842Z,85.92
2023-04-10T11:28:02.846Z,82.19
2023-04-10T11:31:22.800Z,81.76
2023-04-10T11:34:27.788Z,91.40
2023-04-10T11:37:32.146Z,80.84
2023-04-10T11:40:36.625Z,96.86
2023-04-10T11:43:41.241Z,78.40
2023-04-10T11:46:47.413Z,72.19
2023-04-10T11:49:55.839Z,77.54
2023-04-10T11:53:00.666Z,70.23
2023-04-10T11:56:07.575Z,68.35
2023-04-10T11:59:14.445Z,62.45
2023-04-10T12:02:19.022Z,64.92
2023-04-10T12:05:23.678Z,70.56
2023-04-10T12:08:37.763Z,71.55
2023-04-10T12:11:49.787Z,70.01
2023-04-10T12:14:54.535Z,70.49
2023-04-10T12:17:58.972Z,66.91
2023-04-10T12:21:05.508Z,62.48
2023-04-10T12:24:12.284Z,68.76
2023-04-10T12:27:25.591Z,72.06
2023-04-10T12:30:29.904Z,67.24
2023-04-10T12:33:34.377Z,72.12
2023-04-10T12:36:39.188Z,69.95
2023-04-10T12:39:43.980Z,68.59
2023-04-10T12:42:48.479Z,67.42
2023-04-10T12:45:52.672Z,70.27
2023-04-10T12:48:57.123Z,59.30
2023-04-10T12:52:01.907Z,60.45
2023-04-10T12:55:18.862Z,62.54
2023-04-10T12:58:27.971Z,63.59
2023-04-10T13:01:32.553Z,70.78
2023-04-10T13:04:37.059Z,69.63
2023-04-10T13:07:42.300Z,80.02
2023-04-10T13:10:47.152Z,67.21
2023-04-10T13:13:52.619Z,68.17
2023-04-10T13:16:56.820Z,60.51
2023-04-10T13:20:01.199Z,66.99
2023-04-10T13:23:07.950Z,66.33
2023-04-10T13:26:14.101Z,55.39
2023-04-10T13:29:18.521Z,65.65
2023-04-10T13:32:22.961Z,63.14
2023-04-10T13:35:27.359Z,63.02
2023-04-10T13:38:31.916Z,58.96
2023-04-10T13:41:36.133Z,52.44
2023-04-10T13:44:40.538Z,54.98
2023-04-10T13:47:44.534Z,55.40
2023-04-10T13:50:49.426Z,53.27
2023-04-10T13:53:53.611Z,52.73
2023-04-10T13:56:59.269Z,54.01
2023-04-10T14:00:04.788Z,54.37
2023-04-10T14:03:12.178Z,59.21
2023-04-10T14:06:17.637Z,59.83
2023-04-10T14:09:22.254Z,58.20
2023-04-10T14:12:27.332Z,57.98
2023-04-10T14:15:31.649Z,59.84
2023-04-10T14:18:37.361Z,59.21
2023-04-10T14:21:43.862Z,56.45
2023-04-10T14:25:11.808Z,61.40
2023-04-10T14:28:17.666Z,56.66
2023-04-10T14:31:22.401Z,62.10
2023-04-10T14:34:27.180Z,61.63
2023-04-10T14:37:32.268Z,60.96
2023-04-10T14:40:37.283Z,60.24
2023-04-10T14:43:43.580Z,59.08
2023-04-10T14:46:48.811Z,61.91
2023-04-10T14:49:53.318Z,58.59
2023-04-10T14:53:00.176Z,58.88
2023-04-10T14:56:15.733Z,60.85
2023-04-10T14:59:20.400Z,60.95
2023-04-10T15:02:24.834Z,62.39
2023-04-10T15:05:29.873Z,63.36
2023-04-10T15:08:34.264Z,69.06
2023-04-10T15:11:38.431Z,61.09
2023-04-10T15:14:43.042Z,60.36
2023-04-10T15:17:47.442Z,65.03
2023-04-10T15:20:55.978Z,64.17
2023-04-10T15:24:01.110Z,60.34
2023-04-10T15:27:10.028Z,61.38
2023-04-10T15:30:14.546Z,68.70
2023-04-10T15:33:19.506Z,61.98
2023-04-10T15:36:23.984Z,72.63
2023-04-10T15:39:30.844Z,78.24
2023-04-10T15:42:36.195Z,82.17
2023-04-10T15:45:40.448Z,84.16
2023-04-10T15:48:46.053Z,85.86
2023-04-10T15:51:50.500Z,90.75
2023-04-10T15:54:54.790Z,88.92
2023-04-10T15:58:00.975Z,86.58
2023-04-10T16:01:07.041Z,83.01
2023-04-10T16:04:11.317Z,90.22
2023-04-10T16:07:16.528Z,95.00
2023-04-10T16:10:21.380Z,97.51
2023-04-10T16:13:26.026Z,96.92
2023-04-10T16:16:30.956Z,100.00
2023-04-10T16:19:35.321Z,100.00
2023-04-10T16:22:39.317Z,100.00
2023-04-10T16:25:43.617Z,100.00
2023-04-10T16:28:47.973Z,100.00
2023-04-10T16:31:52.212Z,100.00
2023-04-10T16:34:57.021Z,99.31
2023-04-10T16:38:01.316Z,100.00
2023-04-10T16:41:06.341Z,100.00
2023-04-10T16:44:10.762Z,100.00
2023-04-10T16:47:14.629Z,100.00
2023-04-10T16:50:19.058Z,100.00
2023-04-10T16:53:23.512Z,100.00
2023-04-10T16:56:27.886Z,100.00
2023-04-10T16:59:32.920Z,100.00
2023-04-10T17:02:37.073Z,100.00
2023-04-10T17:05:41.485Z,100.00
2023-04-10T17:08:49.715Z,100.00
2023-04-10T17:11:54.097Z,100.00
2023-04-10T17:14:59.061Z,100.00
2023-04-10T17:18:03.620Z,94.27
2023-04-10T17:21:12.772Z,94.74
2023-04-10T17:24:17.453Z,98.90
2023-04-10T17:27:21.852Z,97.61
2023-04-10T17:30:26.478Z,97.92
2023-04-10T17:33:30.714Z,94.76
2023-04-10T17:36:34.868Z,97.86
2023-04-10T17:39:39.416Z,93.72
2023-04-10T17:42:43.830Z,95.23
2023-04-10T17:45:47.714Z,98.22
2023-04-10T17:48:52.148Z,98.89
2023-04-10T17:51:56.722Z,100.00
2023-04-10T17:55:02.283Z,100.00
2023-04-10T17:58:07.122Z,100.00
2023-04-10T18:01:11.592Z,100.00
2023-04-10T18:04:16.434Z,100.00
2023-04-10T18:07:20.980Z,100.00
2023-04-10T18:10:25.603Z,100.00
2023-04-10T18:13:30.262Z,100.00
2023-04-10T18:16:34.227Z,100.00
2023-04-10T18:19:39.234Z,100.00
2023-04-10T18:22:43.584Z,100.00
2023-04-10T18:25:55.556Z,100.00
2023-04-10T18:29:02.456Z,100.00
2023-04-10T18:32:07.706Z,100.00
2023-04-10T18:35:12.205Z,100.00
2023-04-10T18:38:16.863Z,100.00
2023-04-10T18:41:21.122Z,100.00
2023-04-10T18:44:25.291Z,100.00
2023-04-10T18:47:29.979Z,100.00
2023-04-10T18:50:37.922Z,100.00
2023-04-10T18:53:42.204Z,100.00
2023-04-10T18:56:46.767Z,100.00
2023-04-10T18:59:51.371Z,100.00
2023-04-10T19:02:55.709Z,100.00
2023-04-10T19:06:00.596Z,100.00
2023-04-10T19:09:05.264Z,100.00
2023-04-10T19:12:10.449Z,100.00
2023-04-10T19:15:15.867Z,100.00
2023-04-10T19:18:20.160Z,100.00
2023-04-10T19:21:24.106Z,100.00
2023-04-10T19:24:29.092Z,100.00
2023-04-10T19:27:33.545Z,100.00
2023-04-10T19:30:37.834Z,100.00
2023-04-10T19:33:42.102Z,100.00
2023-04-10T19:36:46.713Z,100.00
2023-04-10T19:39:50.905Z,100.00
2023-04-10T19:42:56.374Z,100.00
2023-04-10T19:46:03.757Z,100.00
2023-04-10T19:49:08.411Z,100.00
2023-04-10T19:52:12.848Z,100.00
2023-04-10T19:55:18.986Z,100.00
2023-04-10T19:58:35.992Z,100.00
2023-04-10T20:01:44.744Z,100.00
2023-04-10T20:04:49.488Z,100.00
2023-04-10T20:07:53.997Z,100.00
2023-04-10T20:10:58.470Z,100.00
2023-04-10T20:14:03.089Z,100.00
2023-04-10T20:17:07.657Z,100.00
2023-04-10T20:20:13.123Z,100.00
2023-04-10T20:23:17.222Z,100.00
2023-04-10T20:26:21.915Z,100.00
2023-04-10T20:29:26.642Z,100.00
2023-04-10T20:32:31.106Z,100.00
2023-04-10T20:35:35.791Z,100.00
2023-04-10T20:38:40.556Z,100.00
2023-04-10T20:41:44.892Z,100.00
2023-04-10T20:44:49.805Z,100.00
2023-04-10T20:47:54.411Z,100.00
2023-04-10T20:50:58.590Z,100.00
2023-04-10T20:54:04.421Z,100.00
2023-04-10T20:57:08.870Z,100.00
2023-04-10T21:00:13.286Z,100.00
2023-04-10T21:03:17.732Z,100.00
2023-04-10T21:06:24.656Z,100.00
2023-04-10T21:09:28.806Z,100.00
2023-04-10T21:12:32.793Z,100.00
2023-04-10T21:15:37.437Z,100.00
2023-04-10T21:18:41.713Z,100.00
2023-04-10T21:21:46.424Z,100.00
2023-04-10T21:24:50.951Z,100.00
2023-04-10T21:27:54.958Z,100.00
2023-04-10T21:30:59.371Z,100.00
2023-04-10T21:34:03.842Z,100.00
2023-04-10T21:37:08.208Z,100.00
2023-04-10T21:40:12.294Z,100.00
2023-04-10T21:43:16.634Z,100.00
2023-04-10T21:46:21.289Z,100.00
2023-04-10T21:49:25.777Z,100.00
2023-04-10T21:52:30.132Z,100.00
2023-04-10T21:55:34.283Z,100.00
2023-04-10T21:58:38.718Z,100.00
2023-04-10T22:01:43.784Z,100.00
2023-04-10T22:04:54.453Z,100.00
2023-04-10T22:07:59.322Z,100.00
2023-04-10T22:11:05.862Z,100.00
2023-04-10T22:14:17.075Z,100.00
2023-04-10T22:17:23.633Z,100.00
2023-04-10T22:20:28.296Z,100.00
2023-04-10T22:23:32.877Z,100.00
2023-04-10T22:26:36.911Z,100.00
2023-04-10T22:29:45.413Z,100.00
2023-04-10T22:32:58.691Z,100.00
2023-04-10T22:36:03.847Z,100.00
2023-04-10T22:39:08.528Z,100.00
2023-04-10T22:42:12.768Z,100.00
2023-04-10T22:45:17.064Z,100.00
2023-04-10T22:48:21.144Z,100.00
2023-04-10T22:51:26.761Z,100.00
2023-04-10T22:54:31.397Z,100.00
2023-04-10T22:57:35.819Z,100.00
2023-04-10T23:00:40.175Z,100.00
2023-04-10T23:03:45.060Z,100.00
2023-04-10T23:06:49.488Z,100.00
2023-04-10T23:09:53.982Z,100.00
2023-04-10T23:12:58.314Z,100.00
2023-04-10T23:16:02.795Z,100.00
2023-04-10T23:19:06.739Z,100.00
2023-04-10T23:22:11.448Z,100.00
2023-04-10T23:25:16.063Z,100.00
2023-04-10T23:28:21.443Z,100.00
2023-04-10T23:31:25.692Z,100.00
2023-04-10T23:34:29.823Z,100.00
2023-04-10T23:37:35.269Z,100.00
2023-04-10T23:40:39.668Z,100.00
2023-04-10T23:43:44.938Z,100.00
2023-04-10T23:46:50.817Z,100.00
2023-04-10T23:49:55.782Z,100.00
2023-04-10T23:53:00.638Z,100.00
2023-04-10T23:56:05.255Z,100.00
2023-04-10T23:59:09.777Z,100.00
